Time;durP1;ratioP1;P1;durP2;ratioP2;P2;SDS_P1;SDS_P2;PMS_P1;PMS_P2;Temp;Humidity;BMP_temperature;BMP_pressure;BME280_temperature;BME280_humidity;BME280_pressure;Samples;Min_cycle;Max_cycle;Signal;HPM_P1;HPM_P2
2023/08/05 00:00:24;;;;;;;5.40;2.30;;;15.00;99.90;;;;;;5028125;28;20231;-68
2023/08/05 00:02:53;;;;;;;5.93;2.53;;;14.60;99.90;;;;;;5033465;28;20331;-67
2023/08/05 00:05:20;;;;;;;5.10;2.30;;;;;;;;;;5015420;28;20828;-70
2023/08/05 00:07:46;;;;;;;6.45;2.47;;;14.60;99.90;;;;;;5035158;28;20966;-67
2023/08/05 00:10:13;;;;;;;5.55;2.40;;;14.60;99.90;;;;;;5037485;28;20572;-68
2023/08/05 00:12:40;;;;;;;4.53;2.30;;;14.50;99.90;;;;;;5027310;28;20201;-68
2023/08/05 00:15:08;;;;;;;6.53;2.92;;;14.50;99.90;;;;;;5032507;28;20211;-67
2023/08/05 00:17:35;;;;;;;6.60;2.28;;;14.60;99.90;;;;;;5030691;28;20659;-67
2023/08/05 00:20:03;;;;;;;7.00;2.42;;;14.60;99.90;;;;;;5017540;28;20205;-67
2023/08/05 00:22:30;;;;;;;12.00;2.58;;;14.60;99.90;;;;;;5033605;28;20225;-67
2023/08/05 00:24:57;;;;;;;5.90;2.85;;;14.60;99.90;;;;;;5038004;28;20206;-67
2023/08/05 00:27:23;;;;;;;5.50;2.60;;;14.60;99.90;;;;;;5025450;28;20201;-68
2023/08/05 00:29:50;;;;;;;4.65;2.28;;;14.50;99.90;;;;;;5026310;28;20786;-68
2023/08/05 00:32:17;;;;;;;6.70;2.22;;;14.50;99.90;;;;;;5033855;28;20193;-68
2023/08/05 00:34:44;;;;;;;13.63;2.80;;;14.50;99.90;;;;;;5030019;28;20214;-67
2023/08/05 00:37:12;;;;;;;22.95;2.83;;;14.50;99.90;;;;;;5013924;28;20201;-67
2023/08/05 00:39:39;;;;;;;4.97;2.70;;;14.40;99.90;;;;;;5033059;28;20207;-67
2023/08/05 00:42:06;;;;;;;4.65;2.28;;;14.40;99.90;;;;;;5033519;28;20737;-68
2023/08/05 00:44:33;;;;;;;5.57;2.60;;;14.50;99.90;;;;;;5019356;28;20225;-67
2023/08/05 00:47:00;;;;;;;6.35;3.00;;;14.50;99.90;;;;;;5035179;28;20197;-67
2023/08/05 00:49:29;;;;;;;6.07;2.55;;;14.50;99.90;;;;;;5031942;28;20211;-69
2023/08/05 00:51:57;;;;;;;3.53;2.70;;;14.50;99.90;;;;;;5016637;28;20267;-67
2023/08/05 00:54:25;;;;;;;9.05;2.92;;;14.70;99.90;;;;;;5033196;28;20208;-68
2023/08/05 00:56:53;;;;;;;4.80;2.55;;;14.50;99.90;;;;;;5034856;28;20225;-68
2023/08/05 00:59:19;;;;;;;4.38;2.83;;;14.60;99.90;;;;;;5027634;28;20705;-67
2023/08/05 01:01:46;;;;;;;7.30;2.28;;;14.50;99.90;;;;;;5024899;28;20769;-67
2023/08/05 01:04:13;;;;;;;5.10;2.92;;;14.50;99.90;;;;;;5027566;28;20228;-67
2023/08/05 01:06:41;;;;;;;3.33;2.55;;;14.60;99.90;;;;;;5010809;28;20206;-67
2023/08/05 01:09:08;;;;;;;3.35;2.38;;;14.60;99.90;;;;;;5032324;28;20992;-68
2023/08/05 01:11:37;;;;;;;6.50;2.50;;;14.60;99.90;;;;;;5029949;28;20197;-68
2023/08/05 01:14:04;;;;;;;4.53;2.20;;;14.60;99.90;;;;;;5037102;28;20263;-67
2023/08/05 01:16:31;;;;;;;4.18;2.72;;;14.80;99.90;;;;;;5017358;28;20216;-67
2023/08/05 01:19:00;;;;;;;3.88;2.72;;;14.60;99.90;;;;;;5034420;28;20197;-67
2023/08/05 01:21:36;;;;;;;7.63;2.80;;;14.60;99.90;;;;;;5015247;28;20233;-68
2023/08/05 01:24:13;;;;;;;3.80;2.60;;;14.60;99.90;;;;;;5036579;28;20198;-68
2023/08/05 01:26:41;;;;;;;4.72;3.00;;;14.60;99.90;;;;;;5029577;28;20845;-68
2023/08/05 01:29:10;;;;;;;2.97;2.25;;;14.60;99.90;;;;;;5035405;28;20201;-67
2023/08/05 01:31:37;;;;;;;6.05;2.35;;;14.60;99.90;;;;;;5020029;28;20205;-68
2023/08/05 01:34:04;;;;;;;7.72;2.58;;;14.60;99.90;;;;;;5032002;28;20190;-67
2023/08/05 01:36:32;;;;;;;5.90;2.75;;;14.60;99.90;;;;;;5010690;28;21062;-68
2023/08/05 01:38:59;;;;;;;6.82;2.90;;;14.60;99.90;;;;;;5033947;28;20716;-67
2023/08/05 01:41:26;;;;;;;9.45;2.67;;;14.60;99.90;;;;;;5032639;28;20251;-68
2023/08/05 01:43:54;;;;;;;4.20;2.90;;;14.60;99.90;;;;;;5035275;28;20208;-67
2023/08/05 01:46:21;;;;;;;6.30;2.88;;;14.40;99.90;;;;;;5023275;28;20209;-67
2023/08/05 01:48:47;;;;;;;3.35;2.63;;;14.40;99.90;;;;;;5027594;28;20202;-67
2023/08/05 01:51:14;;;;;;;5.20;2.70;;;14.40;99.90;;;;;;5026664;28;20201;-68
2023/08/05 01:53:41;;;;;;;5.05;2.90;;;14.30;99.90;;;;;;5014947;28;20207;-67
2023/08/05 01:56:08;;;;;;;8.05;2.42;;;14.40;99.90;;;;;;5033557;28;20223;-67
2023/08/05 01:58:35;;;;;;;4.35;2.33;;;14.40;99.90;;;;;;5026280;28;20891;-68
2023/08/05 02:01:03;;;;;;;3.65;2.50;;;14.40;99.90;;;;;;5034729;28;20229;-67
2023/08/05 02:03:30;;;;;;;3.45;2.25;;;14.30;99.90;;;;;;5023848;28;21056;-68
2023/08/05 02:05:57;;;;;;;3.53;2.50;;;14.40;99.90;;;;;;5036761;28;20570;-67
2023/08/05 02:08:24;;;;;;;2.92;2.20;;;14.40;99.90;;;;;;5010747;28;20213;-68
2023/08/05 02:10:50;;;;;;;4.80;2.55;;;14.40;99.90;;;;;;5031591;28;20201;-67
2023/08/05 02:13:17;;;;;;;4.35;2.55;;;15.60;99.90;;;;;;5029087;28;20198;-69
2023/08/05 02:15:44;;;;;;;4.55;2.38;;;14.50;99.90;;;;;;5034476;28;20206;-67
2023/08/05 02:18:12;;;;;;;7.82;2.50;;;14.40;99.90;;;;;;5023890;28;20228;-68
2023/08/05 02:20:39;;;;;;;7.32;2.47;;;14.50;99.90;;;;;;5032819;28;20193;-67
2023/08/05 02:23:05;;;;;;;5.50;2.70;;;14.50;99.90;;;;;;5034658;28;20222;-67
2023/08/05 02:25:32;;;;;;;6.55;3.03;;;14.40;99.90;;;;;;5010001;28;20209;-67
2023/08/05 02:27:59;;;;;;;4.13;2.30;;;14.40;99.90;;;;;;5034240;28;20206;-67
2023/08/05 02:30:26;;;;;;;5.18;2.50;;;14.40;99.90;;;;;;5030925;28;20656;-68
2023/08/05 02:32:53;;;;;;;3.65;2.67;;;14.40;99.90;;;;;;5031634;28;20202;-67
2023/08/05 02:35:21;;;;;;;6.88;2.63;;;14.50;99.90;;;;;;5024807;28;20960;-67
2023/08/05 02:37:47;;;;;;;7.70;2.85;;;14.40;99.90;;;;;;5028750;28;20213;-67
2023/08/05 02:40:14;;;;;;;5.93;2.85;;;14.40;99.90;;;;;;5012074;28;20201;-68
2023/08/05 02:42:41;;;;;;;9.75;3.28;;;14.40;99.90;;;;;;5024253;28;20232;-67
2023/08/05 02:45:09;;;;;;;5.32;2.80;;;14.40;99.90;;;;;;5031240;28;20206;-67
2023/08/05 02:47:36;;;;;;;4.38;2.72;;;14.40;99.90;;;;;;5026675;28;20380;-67
2023/08/05 02:50:02;;;;;;;6.85;2.65;;;14.40;99.90;;;;;;5026036;28;20212;-67
2023/08/05 02:52:31;;;;;;;3.78;2.55;;;14.40;99.90;;;;;;5030418;28;20705;-68
2023/08/05 02:54:57;;;;;;;3.58;2.50;;;14.30;99.90;;;;;;5034399;28;20204;-67
2023/08/05 02:57:24;;;;;;;3.20;2.47;;;15.00;99.90;;;;;;5011281;28;20699;-68
2023/08/05 02:59:51;;;;;;;7.70;2.38;;;14.50;99.90;;;;;;5033705;28;20211;-67
2023/08/05 03:02:18;;;;;;;4.20;2.60;;;14.50;99.90;;;;;;5030454;28;20241;-68
2023/08/05 03:04:44;;;;;;;3.55;2.25;;;14.40;99.90;;;;;;5021038;28;20232;-67
2023/08/05 03:07:11;;;;;;;8.77;2.25;;;14.40;99.90;;;;;;5031170;28;20209;-73
2023/08/05 03:09:39;;;;;;;5.05;2.75;;;14.40;99.90;;;;;;5030702;28;20202;-68
2023/08/05 03:12:08;;;;;;;9.00;2.65;;;14.50;99.90;;;;;;5013828;28;20201;-67
2023/08/05 03:14:35;;;;;;;6.35;4.18;;;14.30;99.90;;;;;;5028408;28;20198;-67
2023/08/05 03:17:02;;;;;;;8.10;4.88;;;14.30;99.90;;;;;;5032445;28;20205;-67
2023/08/05 03:19:29;;;;;;;9.10;3.35;;;14.30;99.90;;;;;;5020642;28;20194;-68
2023/08/05 03:21:55;;;;;;;9.80;3.70;;;14.30;99.90;;;;;;5031592;28;20573;-67
2023/08/05 03:24:22;;;;;;;6.75;3.58;;;14.40;99.90;;;;;;5032090;28;20193;-67
2023/08/05 03:26:50;;;;;;;6.05;3.63;;;14.30;99.90;;;;;;5032230;28;20197;-67
2023/08/05 03:29:17;;;;;;;7.15;3.58;;;14.20;99.90;;;;;;5011004;28;20207;-68
2023/08/05 03:31:44;;;;;;;6.63;3.63;;;14.20;99.90;;;;;;5032448;28;20209;-67
2023/08/05 03:34:11;;;;;;;8.63;3.88;;;14.20;99.90;;;;;;5032046;28;20193;-68
2023/08/05 03:36:37;;;;;;;6.32;3.60;;;14.10;99.90;;;;;;5022905;28;20190;-67
2023/08/05 03:39:04;;;;;;;6.63;3.40;;;14.10;99.90;;;;;;5031993;28;20206;-67
2023/08/05 03:41:31;;;;;;;8.07;3.30;;;14.00;99.90;;;;;;5027030;28;20201;-69
2023/08/05 03:44:01;;;;;;;5.35;3.15;;;14.00;99.90;;;;;;5011809;28;20217;-67
2023/08/05 03:46:28;;;;;;;5.50;3.03;;;14.00;99.90;;;;;;5027977;28;20257;-73
2023/08/05 03:48:54;;;;;;;9.98;3.40;;;13.90;99.90;;;;;;5033641;28;20207;-67
2023/08/05 03:51:21;;;;;;;6.47;3.42;;;13.70;99.90;;;;;;5021457;28;20206;-68
2023/08/05 03:53:48;;;;;;;8.05;3.42;;;13.80;99.90;;;;;;5032706;28;20233;-67
2023/08/05 03:56:18;;;;;;;6.35;3.22;;;13.70;99.90;;;;;;5031074;28;20202;-67
2023/08/05 03:58:46;;;;;;;8.00;3.50;;;13.70;99.90;;;;;;5012456;28;20916;-67
2023/08/05 04:01:16;;;;;;;7.20;3.65;;;13.70;99.90;;;;;;5028503;28;20222;-67
2023/08/05 04:03:43;;;;;;;9.20;3.60;;;13.70;99.90;;;;;;5029413;28;20236;-67
2023/08/05 04:06:11;;;;;;;6.53;3.58;;;13.70;99.90;;;;;;5023978;28;20209;-67
2023/08/05 04:08:39;;;;;;;5.30;3.13;;;13.60;99.90;;;;;;5034503;28;20198;-67
2023/08/05 04:11:08;;;;;;;5.55;3.42;;;13.60;99.90;;;;;;5030937;28;20201;-67
2023/08/05 04:13:37;;;;;;;6.40;3.30;;;14.30;99.90;;;;;;5009987;28;21070;-67
2023/08/05 04:16:04;;;;;;;8.18;3.90;;;13.60;99.90;;;;;;5028189;28;20578;-67
2023/08/05 04:18:37;;;;;;;11.30;4.03;;;13.50;99.90;;;;;;5026765;28;20774;-67
2023/08/05 04:21:05;;;;;;;5.13;3.78;;;13.50;99.90;;;;;;5022020;28;20205;-67
2023/08/05 04:23:34;;;;;;;6.03;3.45;;;13.50;99.90;;;;;;5025225;28;20236;-67
2023/08/05 04:26:03;;;;;;;5.18;3.45;;;13.40;99.90;;;;;;5028002;28;20337;-67
2023/08/05 04:28:30;;;;;;;5.57;3.78;;;13.40;99.90;;;;;;5007276;28;20210;-67
2023/08/05 04:30:57;;;;;;;5.88;3.70;;;13.40;99.90;;;;;;5029730;28;20205;-67
2023/08/05 04:33:25;;;;;;;8.77;3.90;;;13.30;99.90;;;;;;5028080;28;20351;-71
2023/08/05 04:35:53;;;;;;;7.65;3.72;;;13.40;99.90;;;;;;5021010;28;20205;-67
2023/08/05 04:38:20;;;;;;;6.38;3.83;;;13.30;99.90;;;;;;5030992;28;20314;-67
2023/08/05 04:40:48;;;;;;;6.25;3.30;;;13.40;99.90;;;;;;5032095;28;20223;-67
2023/08/05 04:43:16;;;;;;;10.15;4.25;;;13.40;99.90;;;;;;5028566;28;20225;-68
2023/08/05 04:45:43;;;;;;;6.75;3.83;;;13.40;99.90;;;;;;5009959;28;20206;-67
2023/08/05 04:48:10;;;;;;;8.88;3.80;;;13.40;99.90;;;;;;5032660;28;20198;-67
2023/08/05 04:50:37;;;;;;;7.32;3.75;;;13.40;99.90;;;;;;5029260;28;20199;-67
2023/08/05 04:53:05;;;;;;;6.57;3.65;;;13.50;99.90;;;;;;5025183;28;20717;-67
2023/08/05 04:55:32;;;;;;;5.38;3.63;;;13.50;99.90;;;;;;5031269;28;20210;-67
2023/08/05 04:57:59;;;;;;;6.35;3.80;;;13.50;99.90;;;;;;5031492;28;20232;-70
2023/08/05 05:00:26;;;;;;;8.10;3.65;;;13.60;99.90;;;;;;5012963;28;20198;-68
2023/08/05 05:02:53;;;;;;;4.43;3.20;;;13.60;99.90;;;;;;5031727;28;20711;-68
2023/08/05 05:05:20;;;;;;;11.95;4.40;;;13.70;99.90;;;;;;5031093;28;20206;-67
2023/08/05 05:07:47;;;;;;;9.05;4.13;;;13.70;99.90;;;;;;5021666;28;20744;-67
2023/08/05 05:10:15;;;;;;;5.45;3.53;;;13.80;99.90;;;;;;5032436;28;20255;-68
2023/08/05 05:12:42;;;;;;;5.00;3.80;;;13.90;99.90;;;;;;5032389;28;20193;-67
2023/08/05 05:15:09;;;;;;;6.95;3.72;;;13.80;99.90;;;;;;5030331;28;20212;-66
2023/08/05 05:17:37;;;;;;;10.20;4.10;;;13.90;99.90;;;;;;5012101;28;20202;-67
2023/08/05 05:20:05;;;;;;;8.18;4.40;;;13.90;99.90;;;;;;5033194;28;20200;-67
2023/08/05 05:22:32;;;;;;;8.88;4.20;;;13.60;99.90;;;;;;5027366;28;20226;-67
2023/08/05 05:24:59;;;;;;;10.10;4.13;;;;;;;;;;5027487;28;20220;-67
2023/08/05 05:27:28;;;;;;;5.07;3.95;;;14.20;99.90;;;;;;5029817;28;20213;-68
2023/08/05 05:29:54;;;;;;;6.88;4.10;;;14.20;99.90;;;;;;5033188;28;20194;-67
2023/08/05 05:32:21;;;;;;;8.75;4.53;;;14.20;99.90;;;;;;5010091;28;20202;-67
2023/08/05 05:34:48;;;;;;;7.47;4.72;;;14.20;99.90;;;;;;5027768;28;20300;-67
2023/08/05 05:37:15;;;;;;;6.53;4.68;;;14.20;99.90;;;;;;5023990;28;20221;-67
2023/08/05 05:39:42;;;;;;;9.02;4.50;;;14.30;99.90;;;;;;5025725;28;20205;-67
2023/08/05 05:42:08;;;;;;;9.05;4.72;;;14.30;99.90;;;;;;5035404;28;20201;-67
2023/08/05 05:44:38;;;;;;;9.43;5.05;;;14.40;99.90;;;;;;5027166;28;20198;-67
2023/08/05 05:47:05;;;;;;;8.13;5.75;;;14.40;99.90;;;;;;5031271;28;20205;-69
2023/08/05 05:49:32;;;;;;;11.73;5.35;;;14.40;99.90;;;;;;5005520;28;20217;-67
2023/08/05 05:51:58;;;;;;;7.97;5.00;;;14.40;99.90;;;;;;5024047;28;20202;-67
2023/08/05 05:54:25;;;;;;;7.05;5.22;;;14.50;99.90;;;;;;5027665;28;20237;-67
2023/08/05 05:56:52;;;;;;;10.50;5.22;;;14.50;99.90;;;;;;5025189;28;20290;-67
2023/08/05 05:59:19;;;;;;;9.77;5.43;;;14.60;99.90;;;;;;5028942;28;20209;-68
2023/08/05 06:01:47;;;;;;;8.35;4.78;;;14.60;99.90;;;;;;5032737;28;20214;-68
2023/08/05 06:04:14;;;;;;;12.52;4.90;;;14.60;99.90;;;;;;5009556;28;20230;-68
2023/08/05 06:06:41;;;;;;;9.63;4.18;;;14.70;99.90;;;;;;5029793;28;20662;-67
2023/08/05 06:09:07;;;;;;;7.00;4.15;;;14.80;99.90;;;;;;5024363;28;20852;-67
2023/08/05 06:11:34;;;;;;;8.30;4.43;;;14.80;99.90;;;;;;5023575;28;20368;-67
2023/08/05 06:14:01;;;;;;;7.72;4.35;;;14.90;99.90;;;;;;5031829;28;20202;-67
2023/08/05 06:16:28;;;;;;;6.65;3.67;;;15.00;99.90;;;;;;5032273;28;20197;-68
2023/08/05 06:18:56;;;;;;;7.50;3.80;;;14.90;99.90;;;;;;5031491;28;20205;-67
2023/08/05 06:21:23;;;;;;;11.50;4.13;;;15.10;99.90;;;;;;5006920;28;20205;-67
2023/08/05 06:23:50;;;;;;;8.50;4.03;;;15.00;99.90;;;;;;5023018;28;20233;-68
2023/08/05 06:26:17;;;;;;;7.50;3.55;;;;;;;;;;5030022;28;20212;-68
2023/08/05 06:28:43;;;;;;;5.88;3.88;;;15.20;99.90;;;;;;5027069;28;20849;-68
2023/08/05 06:31:10;;;;;;;7.10;3.90;;;15.20;99.90;;;;;;5032310;28;20233;-68
2023/08/05 06:33:37;;;;;;;7.28;3.70;;;15.30;99.90;;;;;;5030007;28;20220;-67
2023/08/05 06:36:06;;;;;;;5.00;3.55;;;15.30;99.90;;;;;;5016589;28;20205;-68
2023/08/05 06:38:32;;;;;;;5.65;3.20;;;15.50;99.90;;;;;;5017225;28;20457;-67
2023/08/05 06:40:59;;;;;;;9.10;3.30;;;15.40;99.90;;;;;;5024483;28;20206;-67
2023/08/05 06:43:26;;;;;;;6.28;3.13;;;12.50;99.90;;;;;;5022171;28;20243;-68
2023/08/05 06:45:53;;;;;;;8.77;3.55;;;15.50;99.90;;;;;;5032730;28;20209;-67
2023/08/05 06:48:20;;;;;;;7.30;2.78;;;15.60;99.90;;;;;;5030871;28;20263;-68
2023/08/05 06:50:46;;;;;;;4.10;2.58;;;15.40;99.90;;;;;;5011892;28;20211;-68
2023/08/05 06:53:14;;;;;;;6.03;2.65;;;15.70;99.90;;;;;;5026884;28;20213;-71
2023/08/05 06:55:41;;;;;;;6.07;2.70;;;15.90;99.90;;;;;;5021861;28;21948;-67
2023/08/05 06:58:08;;;;;;;8.65;2.25;;;15.80;99.90;;;;;;5032167;28;20573;-67
2023/08/05 07:00:35;;;;;;;4.38;2.00;;;15.80;99.90;;;;;;5023303;28;20201;-68
2023/08/05 07:03:02;;;;;;;11.82;2.92;;;15.80;99.90;;;;;;5028011;28;20237;-67
2023/08/05 07:05:29;;;;;;;6.20;2.42;;;15.90;99.90;;;;;;5032014;28;20200;-67
2023/08/05 07:07:56;;;;;;;4.50;2.17;;;16.00;99.90;;;;;;5009476;28;20843;-67
2023/08/05 07:10:25;;;;;;;4.57;2.10;;;16.10;99.90;;;;;;5019502;28;20197;-69
2023/08/05 07:12:52;;;;;;;7.03;2.25;;;16.10;99.90;;;;;;5032142;28;20209;-67
2023/08/05 07:15:18;;;;;;;5.05;2.55;;;16.20;99.90;;;;;;5023547;28;20203;-68
2023/08/05 07:17:45;;;;;;;3.47;2.10;;;16.20;99.90;;;;;;5028808;28;20197;-67
2023/08/05 07:20:12;;;;;;;8.18;1.90;;;16.30;99.90;;;;;;5032686;28;20204;-68
2023/08/05 07:22:39;;;;;;;7.13;2.50;;;16.30;99.90;;;;;;5010970;28;20665;-67
2023/08/05 07:25:07;;;;;;;3.92;1.85;;;16.30;99.90;;;;;;5025246;28;20209;-68
2023/08/05 07:27:35;;;;;;;7.43;1.90;;;16.30;99.90;;;;;;5026502;28;20922;-68
2023/08/05 07:30:02;;;;;;;2.63;2.10;;;16.30;99.90;;;;;;5028308;28;20230;-68
2023/08/05 07:32:30;;;;;;;2.90;1.80;;;16.40;99.90;;;;;;5027061;28;20309;-68
2023/08/05 07:34:57;;;;;;;5.68;2.08;;;16.40;99.90;;;;;;5029035;28;20205;-67
2023/08/05 07:37:24;;;;;;;4.45;2.03;;;16.50;99.90;;;;;;5017490;28;22238;-68
2023/08/05 07:39:51;;;;;;;4.78;2.45;;;16.50;99.90;;;;;;5007982;28;20213;-68
2023/08/05 07:42:22;;;;;;;2.95;1.98;;;16.60;99.90;;;;;;5018778;28;20590;-68
2023/08/05 07:44:52;;;;;;;3.25;1.70;;;16.60;99.90;;;;;;5029388;28;20260;-67
2023/08/05 07:47:18;;;;;;;2.13;1.60;;;16.70;99.90;;;;;;5026002;28;20208;-68
2023/08/05 07:49:45;;;;;;;4.50;1.40;;;16.70;99.90;;;;;;5031038;28;20677;-68
2023/08/05 07:52:12;;;;;;;3.63;1.88;;;16.80;99.90;;;;;;5025953;28;20854;-68
2023/08/05 07:54:39;;;;;;;3.60;1.80;;;16.80;99.90;;;;;;5013316;28;20208;-67
2023/08/05 07:57:07;;;;;;;3.53;1.88;;;16.80;99.90;;;;;;5018986;28;20228;-68
2023/08/05 07:59:34;;;;;;;6.32;2.00;;;16.80;99.90;;;;;;5025062;28;20296;-67
2023/08/05 08:02:05;;;;;;;3.78;1.90;;;16.80;99.90;;;;;;5030246;28;20681;-67
2023/08/05 08:04:34;;;;;;;4.03;1.70;;;16.80;99.90;;;;;;5027905;28;20713;-68
2023/08/05 08:07:01;;;;;;;5.47;1.83;;;16.80;99.90;;;;;;5027540;28;20228;-70
2023/08/05 08:09:28;;;;;;;2.13;1.55;;;16.80;99.90;;;;;;5012036;28;20236;-68
2023/08/05 08:11:54;;;;;;;2.60;1.40;;;16.80;99.90;;;;;;5023900;28;20213;-68
2023/08/05 08:14:21;;;;;;;2.97;1.95;;;16.90;99.90;;;;;;5024944;28;20748;-68
2023/08/05 08:16:48;;;;;;;2.60;1.48;;;16.90;99.90;;;;;;5031707;28;20688;-67
2023/08/05 08:19:18;;;;;;;4.13;1.70;;;16.90;99.90;;;;;;5032011;28;20678;-67
2023/08/05 08:21:45;;;;;;;4.28;1.80;;;16.90;99.90;;;;;;5028256;28;20738;-67
2023/08/05 08:24:12;;;;;;;2.25;1.60;;;16.80;99.90;;;;;;5027230;28;20221;-68
2023/08/05 08:26:39;;;;;;;2.85;1.52;;;16.80;99.90;;;;;;5015139;28;20213;-67
2023/08/05 08:29:05;;;;;;;2.20;1.90;;;16.80;99.90;;;;;;5020650;28;20206;-67
2023/08/05 08:31:33;;;;;;;2.15;1.35;;;16.80;99.90;;;;;;5033006;28;20198;-67
2023/08/05 08:34:00;;;;;;;2.13;1.30;;;16.80;99.90;;;;;;5032202;28;20233;-68
2023/08/05 08:36:28;;;;;;;2.70;1.60;;;16.80;99.90;;;;;;5032606;28;20204;-67
2023/08/05 08:38:55;;;;;;;3.83;1.70;;;16.90;99.90;;;;;;5033317;28;20714;-68
2023/08/05 08:41:22;;;;;;;3.13;1.70;;;16.90;99.90;;;;;;5009930;28;20202;-68
2023/08/05 08:43:52;;;;;;;3.60;1.88;;;16.90;99.90;;;;;;5025579;28;20217;-68
2023/08/05 08:46:20;;;;;;;4.28;1.85;;;17.00;99.90;;;;;;5027839;28;20206;-68
2023/08/05 08:48:50;;;;;;;2.20;1.63;;;17.10;99.90;;;;;;5034258;28;20202;-68
2023/08/05 08:51:20;;;;;;;1.65;1.40;;;17.30;99.90;;;;;;5033042;28;20240;-67
2023/08/05 08:53:49;;;;;;;2.63;1.60;;;17.20;99.90;;;;;;5032481;28;20200;-68
2023/08/05 08:56:16;;;;;;;3.00;1.52;;;17.20;99.90;;;;;;5010907;28;20206;-68
2023/08/05 08:58:43;;;;;;;7.10;1.60;;;17.20;99.90;;;;;;5034507;28;21107;-67
2023/08/05 09:01:12;;;;;;;6.93;1.95;;;17.30;99.90;;;;;;5018196;28;20210;-68
2023/08/05 09:03:42;;;;;;;2.58;1.50;;;17.30;99.90;;;;;;5031809;28;20262;-67
2023/08/05 09:06:09;;;;;;;3.50;1.70;;;17.30;99.90;;;;;;5032652;28;20208;-68
2023/08/05 09:08:37;;;;;;;3.90;2.58;;;17.30;99.90;;;;;;5032820;28;20228;-67
2023/08/05 09:11:05;;;;;;;1.48;1.30;;;17.30;99.90;;;;;;5031661;28;20292;-67
2023/08/05 09:13:31;;;;;;;2.00;1.40;;;17.30;99.90;;;;;;5008378;28;20608;-67
2023/08/05 09:15:58;;;;;;;3.38;1.30;;;17.40;99.90;;;;;;5018821;28;20242;-67
2023/08/05 09:18:25;;;;;;;2.00;1.60;;;17.50;99.90;;;;;;5029593;28;20193;-68
2023/08/05 09:20:52;;;;;;;4.47;2.17;;;17.50;99.90;;;;;;5032302;28;20209;-69
2023/08/05 09:23:19;;;;;;;3.53;1.73;;;17.70;99.90;;;;;;5028403;28;20208;-68
2023/08/05 09:25:47;;;;;;;4.07;1.98;;;17.70;99.90;;;;;;5031949;28;20202;-68
2023/08/05 09:28:31;;;;;;;2.85;1.67;;;17.80;99.90;;;;;;5012817;28;21522;-67
2023/08/05 09:31:12;;;;;;;2.55;1.60;;;17.80;99.90;;;;;;5023078;28;20244;-68
2023/08/05 09:33:40;;;;;;;7.95;2.03;;;17.80;99.90;;;;;;5035625;28;20203;-68
2023/08/05 09:36:11;;;;;;;1.85;1.70;;;17.80;99.90;;;;;;5027568;28;20198;-68
2023/08/05 09:38:39;;;;;;;3.67;2.05;;;17.80;99.90;;;;;;5030719;28;20197;-68
2023/08/05 09:41:06;;;;;;;4.30;1.70;;;17.80;99.90;;;;;;5030580;28;20210;-68
2023/08/05 09:43:38;;;;;;;5.10;1.73;;;17.90;99.90;;;;;;5035586;28;20237;-68
2023/08/05 09:46:07;;;;;;;4.53;1.80;;;17.90;99.90;;;;;;5004455;28;20706;-68
2023/08/05 09:48:40;;;;;;;5.03;1.83;;;17.90;99.90;;;;;;5025662;28;20202;-68
2023/08/05 09:51:08;;;;;;;3.45;1.60;;;18.10;99.90;;;;;;5028303;28;20209;-69
2023/08/05 09:53:39;;;;;;;5.05;1.80;;;18.10;99.90;;;;;;5029336;28;20202;-67
2023/08/05 09:56:06;;;;;;;4.70;2.10;;;18.10;99.90;;;;;;5027633;28;20220;-68
2023/08/05 09:58:35;;;;;;;7.68;2.10;;;18.10;99.90;;;;;;5033791;28;20305;-67
2023/08/05 10:01:07;;;;;;;4.65;1.73;;;18.10;99.90;;;;;;5008289;28;20263;-68
2023/08/05 10:03:36;;;;;;;3.63;1.70;;;18.10;99.90;;;;;;5026695;28;20312;-68
2023/08/05 10:06:05;;;;;;;2.22;1.67;;;18.20;99.90;;;;;;5030545;28;20208;-68
2023/08/05 10:08:35;;;;;;;5.57;1.77;;;18.20;99.90;;;;;;5029052;28;20218;-67
2023/08/05 10:11:03;;;;;;;5.50;2.45;;;18.40;99.90;;;;;;5029112;28;20198;-68
2023/08/05 10:13:33;;;;;;;2.67;1.67;;;18.40;99.90;;;;;;5030074;28;20209;-67
2023/08/05 10:16:01;;;;;;;2.50;1.67;;;18.40;99.90;;;;;;5008177;28;20216;-67
2023/08/05 10:18:29;;;;;;;1.98;1.55;;;18.40;99.90;;;;;;5021179;28;20289;-67
2023/08/05 10:20:55;;;;;;;2.40;1.80;;;18.40;99.90;;;;;;5028847;28;20723;-67
2023/08/05 10:23:26;;;;;;;4.30;1.95;;;18.50;99.90;;;;;;5031546;28;20194;-67
2023/08/05 10:26:00;;;;;;;3.30;2.13;;;18.60;99.90;;;;;;5034095;28;20764;-67
2023/08/05 10:28:40;;;;;;;4.38;1.95;;;18.60;99.90;;;;;;5033796;28;20209;-68
2023/08/05 10:31:24;;;;;;;3.22;1.73;;;18.60;99.90;;;;;;5011258;28;20271;-68
2023/08/05 10:34:11;;;;;;;3.53;1.67;;;18.60;99.90;;;;;;5020820;28;20209;-70
2023/08/05 10:36:42;;;;;;;5.40;1.80;;;18.50;99.90;;;;;;5029969;28;20806;-67
2023/08/05 10:39:43;;;;;;;5.07;2.60;;;18.60;99.90;;;;;;5029573;28;20197;-68
2023/08/05 10:42:34;;;;;;;4.20;2.78;;;18.70;99.90;;;;;;5029919;28;20224;-67
2023/08/05 10:45:04;;;;;;;3.45;1.77;;;18.60;99.90;;;;;;5027879;28;20229;-68
2023/08/05 10:47:34;;;;;;;3.15;1.77;;;18.60;99.90;;;;;;5008911;28;20209;-67
2023/08/05 10:50:01;;;;;;;3.63;1.88;;;18.60;99.90;;;;;;5024877;28;20209;-68
2023/08/05 10:52:28;;;;;;;2.08;1.60;;;18.60;99.90;;;;;;5029334;28;20296;-67
2023/08/05 10:54:56;;;;;;;3.60;1.65;;;18.80;99.90;;;;;;5033166;28;20204;-67
2023/08/05 10:57:45;;;;;;;3.80;1.90;;;19.00;99.90;;;;;;5031258;28;20197;-67
2023/08/05 11:00:19;;;;;;;5.45;2.00;;;19.20;99.90;;;;;;5021402;28;22386;-67
2023/08/05 11:02:49;;;;;;;5.00;2.08;;;19.10;99.90;;;;;;5028813;28;20208;-67
2023/08/05 11:05:17;;;;;;;3.20;1.75;;;19.00;99.90;;;;;;5002001;28;20221;-68
2023/08/05 11:07:44;;;;;;;2.55;1.98;;;19.00;99.90;;;;;;5030723;28;20224;-67
2023/08/05 11:10:12;;;;;;;5.47;2.40;;;18.90;99.90;;;;;;5029292;28;20548;-68
2023/08/05 11:12:40;;;;;;;5.90;2.08;;;18.90;99.90;;;;;;5031086;28;20255;-67
2023/08/05 11:15:08;;;;;;;2.88;1.85;;;18.90;99.90;;;;;;5027815;28;20206;-67
2023/08/05 11:17:52;;;;;;;4.95;2.28;;;19.00;99.90;;;;;;5032765;28;20833;-67
2023/08/05 11:20:19;;;;;;;4.40;1.73;;;19.10;99.90;;;;;;5007275;28;20209;-67
2023/08/05 11:22:47;;;;;;;4.45;1.75;;;19.10;99.90;;;;;;5029772;28;20206;-67
2023/08/05 11:25:18;;;;;;;6.10;2.20;;;19.20;99.90;;;;;;5028123;28;20225;-67
2023/08/05 11:27:51;;;;;;;4.35;2.05;;;19.20;99.90;;;;;;5032774;28;20764;-67
2023/08/05 11:30:19;;;;;;;4.15;1.90;;;19.20;99.90;;;;;;5025452;28;21632;-68
2023/08/05 11:32:52;;;;;;;3.78;1.90;;;19.20;99.90;;;;;;5031005;28;20762;-67
2023/08/05 11:35:19;;;;;;;3.45;1.75;;;19.20;99.90;;;;;;5006022;28;20206;-67
2023/08/05 11:37:46;;;;;;;4.70;1.80;;;19.20;99.90;;;;;;5025739;28;20209;-67
2023/08/05 11:40:13;;;;;;;2.85;1.60;;;19.30;99.90;;;;;;5029383;28;20201;-67
2023/08/05 11:42:40;;;;;;;3.78;1.70;;;19.30;99.90;;;;;;5026006;28;20197;-67
2023/08/05 11:45:10;;;;;;;2.50;1.50;;;19.30;99.90;;;;;;5032728;28;20294;-67
2023/08/05 11:47:37;;;;;;;3.08;1.70;;;19.40;99.90;;;;;;5037139;28;20204;-67
2023/08/05 11:50:07;;;;;;;2.28;1.38;;;19.30;99.90;;;;;;5021827;28;20202;-67
2023/08/05 11:52:34;;;;;;;3.47;1.60;;;19.30;99.90;;;;;;5030759;28;20209;-67
2023/08/05 11:55:02;;;;;;;2.05;1.55;;;19.40;99.90;;;;;;5037297;28;20209;-67
2023/08/05 11:57:29;;;;;;;3.30;1.67;;;19.40;99.90;;;;;;5036236;28;20209;-67
2023/08/05 11:59:56;;;;;;;2.05;1.55;;;19.30;99.90;;;;;;5033200;28;20213;-67
2023/08/05 12:02:25;;;;;;;2.67;2.08;;;19.40;99.90;;;;;;5034896;28;20196;-67
2023/08/05 12:04:57;;;;;;;4.88;1.83;;;19.60;99.90;;;;;;5037197;28;20228;-67
2023/08/05 12:07:25;;;;;;;2.67;1.58;;;19.60;99.90;;;;;;5021514;28;20339;-67
2023/08/05 12:10:07;;;;;;;1.70;1.52;;;19.60;99.90;;;;;;5037788;28;20208;-67
2023/08/05 12:12:34;;;;;;;2.33;1.40;;;19.60;99.90;;;;;;5037114;28;20277;-68
2023/08/05 12:15:11;;;;;;;2.05;1.50;;;19.20;99.90;;;;;;5033043;28;20678;-68
2023/08/05 12:17:38;;;;;;;17.33;2.92;;;19.50;99.90;;;;;;5037253;28;20201;-68
2023/08/05 12:20:10;;;;;;;2.45;1.80;;;19.50;99.90;;;;;;5034155;28;20204;-68
2023/08/05 12:22:38;;;;;;;1.85;1.65;;;19.50;99.90;;;;;;5010962;28;20209;-67
2023/08/05 12:25:06;;;;;;;3.90;1.73;;;19.60;99.90;;;;;;5036492;28;20232;-68
2023/08/05 12:27:33;;;;;;;2.20;1.77;;;19.60;99.90;;;;;;5035503;28;20212;-68
2023/08/05 12:30:00;;;;;;;4.68;1.70;;;19.60;99.90;;;;;;5036069;28;20198;-68
2023/08/05 12:32:26;;;;;;;5.57;1.88;;;19.60;99.90;;;;;;5034440;28;20205;-68
2023/08/05 12:34:53;;;;;;;2.40;1.80;;;19.70;99.90;;;;;;5035392;28;20197;-68
2023/08/05 12:37:20;;;;;;;5.70;1.90;;;19.80;99.90;;;;;;5009785;28;20217;-68
2023/08/05 12:39:48;;;;;;;3.53;1.70;;;19.70;99.90;;;;;;5035615;28;20209;-68
2023/08/05 12:42:15;;;;;;;1.75;1.63;;;19.60;99.90;;;;;;5034222;28;20457;-68
2023/08/05 12:44:42;;;;;;;2.63;1.70;;;19.70;99.90;;;;;;5036311;28;20225;-68
2023/08/05 12:47:08;;;;;;;1.70;1.58;;;19.70;99.90;;;;;;5033145;28;20201;-68
2023/08/05 12:49:36;;;;;;;2.15;1.70;;;19.70;99.90;;;;;;5037378;28;20202;-68
2023/08/05 12:52:04;;;;;;;3.00;1.98;;;19.70;99.90;;;;;;5019779;28;21518;-68